METAR Analyzer

一覧表示

Hello, Guest. (Login)

WADD/DPS  -  バリ/デンパサール/ングラ・ライ

観測日時
2021-08-05 02:00 (UTC) (22分前)
気温
28
露点
25
湿数
3
相対湿度
83.8%
QNH
1014hPa
推定現地気圧
1013.5hPa
推定海面気圧
1014.0hPa
体感温度
22.7
(無風時)
27.7
HI
32.7
気温前日比
±0
体感温度前日比
+0.3
HI前日比
±0
水平視程
>10000m
鉛直視程
データなし
雲底高度
No dense clouds
V/I
VMC (VFR)
RVR
No RVR data
卓越風
13kt from 110°
ガスト
No gust
降水
報告なし
その他の天気
報告なし
散在する雲 @ 1600ft AGL

WADD 050200Z 11013KT 9999 SCT016 28/25 Q1014 NOSIG

RPLL/MNL  -  マニラ/ニノイ・アキノ

観測日時
2021-08-05 01:00 (UTC) (82分前)
気温
32
露点
26
湿数
6
相対湿度
70.7%
QNH
1008.1hPa
推定現地気圧
1005.4hPa
推定海面気圧
1008.0hPa
体感温度
27.3
(無風時)
29.9
HI
40.7
気温前日比
+1
体感温度前日比
+1
HI前日比
+1.6
水平視程
>10000m
鉛直視程
データなし
雲底高度
27000ft AGL
V/I
VMC (VFR)
RVR
No RVR data
卓越風
12kt from 230° (200° ~ 260°)
ガスト
No gust
降水
報告なし
その他の天気
報告なし
散在する雲 @ 2500ft AGL / 隙間のある雲 @ 27000ft AGL

RPLL 050100Z 23012KT 200V260 9999 SCT025 BKN270 32/26 Q1008 NOSIG RMK A2977

VTBS/BKK  -  バンコク/スワンナプーム

観測日時
2021-08-05 02:00 (UTC) (22分前)
気温
30
露点
24
湿数
6
相対湿度
70.3%
QNH
1008hPa
推定現地気圧
1007.8hPa
推定海面気圧
1008.0hPa
体感温度
24.9
(無風時)
28.3
HI
35.1
気温前日比
-1
体感温度前日比
-1
HI前日比
-0.4
水平視程
>10000m
鉛直視程
データなし
雲底高度
No dense clouds
V/I
VMC (VFR)
RVR
No RVR data
卓越風
10kt from 200°
ガスト
No gust
降水
報告なし
その他の天気
報告なし
少しの雲 @ 2000ft AGL

VTBS 050200Z 20010KT 9999 FEW020 30/24 Q1008 NOSIG

VTSM/USM  -  サムイ

観測日時
2021-08-05 02:00 (UTC) (22分前)
気温
31
露点
23
湿数
8
相対湿度
62.5%
QNH
1010hPa
推定現地気圧
1007.6hPa
推定海面気圧
1009.9hPa
体感温度
25.6
(無風時)
28.5
HI
35.5
気温前日比
+1
体感温度前日比
+0.3
HI前日比
+0.4
水平視程
>10000m
鉛直視程
データなし
雲底高度
No dense clouds
V/I
VMC (VFR)
RVR
No RVR data
卓越風
10kt from 270°
ガスト
No gust
降水
報告なし
その他の天気
報告なし
少しの雲 @ 2000ft AGL

VTSM 050200Z 27010KT 9999 FEW020 31/23 Q1010 NOSIG

3.3msec